createdAt,value
2023-04-16T00:01:02.482Z,8.58
2023-04-16T00:03:34.586Z,8.59
2023-04-16T00:06:02.461Z,8.56
2023-04-16T00:08:30.111Z,8.55
2023-04-16T00:10:57.700Z,8.55
2023-04-16T00:13:27.100Z,8.58
2023-04-16T00:15:54.986Z,8.66
2023-04-16T00:18:22.549Z,8.70
2023-04-16T00:20:50.861Z,8.72
2023-04-16T00:23:18.543Z,8.72
2023-04-16T00:25:46.280Z,8.71
2023-04-16T00:28:13.994Z,8.72
2023-04-16T00:30:41.658Z,8.74
2023-04-16T00:33:09.289Z,8.76
2023-04-16T00:35:36.903Z,8.78
2023-04-16T00:38:04.562Z,8.76
2023-04-16T00:40:32.147Z,8.74
2023-04-16T00:42:59.889Z,8.71
2023-04-16T00:45:27.480Z,8.68
2023-04-16T00:47:55.898Z,8.68
2023-04-16T00:50:23.532Z,8.68
2023-04-16T00:52:51.166Z,8.67
2023-04-16T00:55:19.143Z,8.64
2023-04-16T00:57:46.834Z,8.60
2023-04-16T01:00:14.658Z,8.60
2023-04-16T01:02:42.702Z,8.63
2023-04-16T01:05:10.432Z,8.63
2023-04-16T01:07:38.194Z,8.60
2023-04-16T01:10:06.461Z,8.55
2023-04-16T01:12:34.047Z,8.47
2023-04-16T01:15:01.749Z,8.44
2023-04-16T01:17:29.445Z,8.42
2023-04-16T01:20:00.446Z,8.39
2023-04-16T01:22:28.689Z,8.34
2023-04-16T01:24:56.505Z,8.28
2023-04-16T01:27:24.050Z,8.22
2023-04-16T01:29:51.721Z,8.20
2023-04-16T01:32:19.375Z,8.19
2023-04-16T01:34:46.992Z,8.18
2023-04-16T01:37:14.561Z,8.14
2023-04-16T01:39:42.122Z,8.09
2023-04-16T01:42:09.682Z,8.04
2023-04-16T01:44:37.353Z,8.01
2023-04-16T01:47:04.975Z,7.99
2023-04-16T01:49:33.804Z,7.96
2023-04-16T01:52:01.407Z,7.91
2023-04-16T01:54:28.982Z,7.89
2023-04-16T01:56:57.110Z,7.90
2023-04-16T01:59:24.678Z,7.93
2023-04-16T02:01:52.340Z,7.95
2023-04-16T02:04:19.983Z,7.95
2023-04-16T02:06:47.552Z,7.93
2023-04-16T02:09:15.603Z,7.91
2023-04-16T02:11:43.199Z,7.94
2023-04-16T02:14:11.047Z,7.97
2023-04-16T02:16:38.656Z,7.99
2023-04-16T02:19:06.564Z,8.00
2023-04-16T02:21:34.353Z,7.98
2023-04-16T02:24:02.068Z,7.95
2023-04-16T02:26:29.859Z,7.94
2023-04-16T02:28:57.432Z,7.96
2023-04-16T02:31:25.052Z,7.96
2023-04-16T02:33:52.649Z,7.97
2023-04-16T02:36:20.334Z,7.97
2023-04-16T02:38:47.921Z,7.97
2023-04-16T02:41:15.486Z,7.98
2023-04-16T02:43:43.071Z,8.01
2023-04-16T02:46:10.828Z,8.05
2023-04-16T02:48:38.445Z,8.08
2023-04-16T02:51:06.042Z,8.10
2023-04-16T02:53:33.857Z,8.11
2023-04-16T02:56:01.464Z,8.10
2023-04-16T02:58:29.053Z,8.10
2023-04-16T03:00:56.786Z,8.14
2023-04-16T03:03:24.522Z,8.19
2023-04-16T03:05:52.282Z,8.22
2023-04-16T03:08:19.897Z,8.24
2023-04-16T03:10:47.508Z,8.24
2023-04-16T03:13:15.462Z,8.23
2023-04-16T03:15:48.820Z,8.24
2023-04-16T03:18:16.581Z,8.25
2023-04-16T03:20:44.229Z,8.26
2023-04-16T03:23:11.831Z,8.25
2023-04-16T03:25:40.655Z,8.22
2023-04-16T03:28:08.194Z,8.21
2023-04-16T03:30:35.930Z,8.23
2023-04-16T03:33:03.572Z,8.25
2023-04-16T03:35:31.245Z,8.26
2023-04-16T03:37:58.921Z,8.24
2023-04-16T03:40:26.552Z,8.21
2023-04-16T03:42:54.144Z,8.16
2023-04-16T03:45:21.712Z,8.14
2023-04-16T03:47:52.726Z,8.12
2023-04-16T03:50:20.493Z,8.11
2023-04-16T03:52:49.525Z,8.09
2023-04-16T03:55:17.148Z,8.07
2023-04-16T03:57:44.753Z,8.06
2023-04-16T04:00:12.502Z,8.08
2023-04-16T04:02:40.504Z,8.11
2023-04-16T04:05:08.547Z,8.13
2023-04-16T04:07:36.282Z,8.15
2023-04-16T04:10:04.158Z,8.18
2023-04-16T04:12:32.083Z,8.19
2023-04-16T04:14:59.667Z,8.23
2023-04-16T04:17:27.795Z,8.27
2023-04-16T04:22:28.110Z,8.30
2023-04-16T04:24:55.674Z,8.29
2023-04-16T04:27:23.236Z,8.29
2023-04-16T04:29:50.832Z,8.31
2023-04-16T04:32:18.714Z,8.37
2023-04-16T04:34:46.280Z,8.41
2023-04-16T04:37:13.859Z,8.44
2023-04-16T04:39:41.781Z,8.44
2023-04-16T04:42:09.429Z,8.45
2023-04-16T04:44:36.988Z,8.47
2023-04-16T04:47:04.605Z,8.50
2023-04-16T04:49:32.175Z,8.52
2023-04-16T04:51:59.774Z,8.52
2023-04-16T04:54:28.515Z,8.51
2023-04-16T04:56:56.599Z,8.49
2023-04-16T04:59:24.566Z,8.48
2023-04-16T05:01:52.225Z,8.47
2023-04-16T05:04:20.006Z,8.48
2023-04-16T05:06:47.648Z,8.48
2023-04-16T05:09:15.740Z,8.49
2023-04-16T05:11:43.322Z,8.47
2023-04-16T05:14:10.924Z,8.45
2023-04-16T05:16:38.673Z,8.47
2023-04-16T05:19:06.352Z,8.51
2023-04-16T05:21:34.061Z,8.55
2023-04-16T05:24:01.630Z,8.58
2023-04-16T05:26:29.208Z,8.63
2023-04-16T05:28:56.807Z,8.68
2023-04-16T05:31:24.620Z,8.75
2023-04-16T05:33:52.261Z,8.84
2023-04-16T05:36:19.841Z,8.92
2023-04-16T05:38:47.402Z,8.97
2023-04-16T05:41:15.169Z,8.99
2023-04-16T05:43:42.876Z,9.04
2023-04-16T05:46:11.134Z,9.11
2023-04-16T05:48:40.210Z,9.18
2023-04-16T05:51:07.966Z,9.24
2023-04-16T05:53:38.723Z,9.29
2023-04-16T05:56:07.075Z,9.36
2023-04-16T05:58:34.847Z,9.43
2023-04-16T06:01:02.444Z,9.50
2023-04-16T06:03:30.188Z,9.58
2023-04-16T06:05:58.006Z,9.65
2023-04-16T06:08:25.825Z,9.73
2023-04-16T06:10:53.560Z,9.83
2023-04-16T06:13:21.181Z,9.91
2023-04-16T06:15:48.838Z,9.94
2023-04-16T06:18:16.486Z,9.94
2023-04-16T06:20:44.113Z,9.94
2023-04-16T06:23:11.667Z,9.98
2023-04-16T06:25:39.303Z,10.02
2023-04-16T06:28:06.879Z,10.05
2023-04-16T06:30:34.515Z,10.07
2023-04-16T06:33:02.243Z,10.09
2023-04-16T06:35:29.985Z,10.15
2023-04-16T06:37:57.572Z,10.25
2023-04-16T06:40:25.545Z,10.33
2023-04-16T06:42:53.725Z,10.37
2023-04-16T06:45:21.369Z,10.38
2023-04-16T06:47:49.767Z,10.43
2023-04-16T06:50:17.673Z,10.50
2023-04-16T06:52:45.390Z,10.59
2023-04-16T06:55:12.961Z,10.67
2023-04-16T06:57:41.100Z,10.73
2023-04-16T07:00:09.233Z,10.77
2023-04-16T07:02:36.951Z,10.85
2023-04-16T07:05:05.118Z,10.92
2023-04-16T07:07:33.007Z,10.97
2023-04-16T07:10:00.935Z,11.01
2023-04-16T07:12:28.692Z,11.07
2023-04-16T07:14:56.781Z,11.15
2023-04-16T07:17:24.731Z,11.19
2023-04-16T07:19:52.800Z,11.20
2023-04-16T07:22:21.220Z,11.22
2023-04-16T07:24:49.033Z,11.23
2023-04-16T07:27:17.173Z,11.25
2023-04-16T07:29:46.020Z,11.26
2023-04-16T07:32:15.403Z,11.22
2023-04-16T07:34:43.499Z,11.20
2023-04-16T07:37:11.290Z,11.22
2023-04-16T07:39:38.962Z,11.24
2023-04-16T07:42:06.970Z,11.24
2023-04-16T07:44:34.568Z,11.27
2023-04-16T07:47:04.191Z,11.30
2023-04-16T07:49:33.568Z,11.36
2023-04-16T07:52:01.169Z,11.44
2023-04-16T07:54:29.256Z,11.49
2023-04-16T07:56:57.068Z,11.51
2023-04-16T07:59:24.790Z,11.56
2023-04-16T08:01:53.062Z,11.64
2023-04-16T08:04:25.408Z,11.66
2023-04-16T08:06:54.003Z,11.69
2023-04-16T08:09:22.955Z,11.74
2023-04-16T08:11:50.924Z,11.79
2023-04-16T08:14:18.911Z,11.82
2023-04-16T08:16:46.561Z,11.85
2023-04-16T08:19:14.135Z,11.89
2023-04-16T08:21:42.018Z,11.94
2023-04-16T08:24:09.772Z,12.00
2023-04-16T08:26:37.370Z,12.05
2023-04-16T08:29:05.176Z,12.15
2023-04-16T08:31:32.981Z,12.23
2023-04-16T08:34:00.952Z,12.27
2023-04-16T08:36:28.571Z,12.26
2023-04-16T08:38:56.237Z,12.25
2023-04-16T08:41:23.932Z,12.23
2023-04-16T08:43:52.160Z,12.25
2023-04-16T08:46:19.742Z,12.28
2023-04-16T08:48:47.716Z,12.33
2023-04-16T08:51:15.719Z,12.41
2023-04-16T08:53:48.724Z,12.49
2023-04-16T08:56:16.283Z,12.55
2023-04-16T08:58:43.882Z,12.60
2023-04-16T09:01:11.712Z,12.64
2023-04-16T09:03:39.454Z,12.67
2023-04-16T09:06:07.207Z,12.76
2023-04-16T09:08:36.158Z,12.94
2023-04-16T09:11:03.800Z,13.04
2023-04-16T09:13:31.960Z,13.11
2023-04-16T09:15:59.693Z,13.20
2023-04-16T09:18:28.534Z,13.30
2023-04-16T09:20:57.151Z,13.41
2023-04-16T09:23:25.221Z,13.52
2023-04-16T09:25:53.795Z,13.62
2023-04-16T09:28:40.432Z,13.70
2023-04-16T09:31:14.782Z,13.78
2023-04-16T09:33:45.807Z,13.88
2023-04-16T09:36:13.442Z,13.96
2023-04-16T09:38:52.166Z,14.00
2023-04-16T09:41:19.947Z,14.01
2023-04-16T09:43:56.643Z,14.07
2023-04-16T09:46:31.818Z,14.19
2023-04-16T09:49:05.544Z,14.27
2023-04-16T09:51:37.581Z,14.27
2023-04-16T09:54:06.191Z,14.22
2023-04-16T09:56:34.007Z,14.12
2023-04-16T09:59:01.708Z,14.04
2023-04-16T10:01:29.344Z,14.01
2023-04-16T10:03:57.208Z,14.01
2023-04-16T10:06:27.983Z,14.06
2023-04-16T10:08:58.597Z,14.09
2023-04-16T10:11:26.433Z,14.12
2023-04-16T10:13:54.097Z,14.14
2023-04-16T10:16:22.495Z,14.18
2023-04-16T10:18:50.221Z,14.19
2023-04-16T10:21:18.021Z,14.13
2023-04-16T10:23:48.780Z,14.09
2023-04-16T10:26:16.637Z,14.07
2023-04-16T10:28:45.015Z,14.09
2023-04-16T10:31:12.705Z,14.20
2023-04-16T10:33:41.022Z,14.36
2023-04-16T10:36:09.964Z,14.57
2023-04-16T10:38:47.820Z,14.76
2023-04-16T10:41:15.691Z,14.95
2023-04-16T10:43:47.572Z,15.05
2023-04-16T10:46:22.868Z,15.20
2023-04-16T10:48:53.104Z,15.38
2023-04-16T10:51:38.935Z,15.52
2023-04-16T10:54:10.010Z,15.68
2023-04-16T10:56:37.676Z,15.93
2023-04-16T10:59:06.516Z,16.30
2023-04-16T11:01:35.876Z,16.64
2023-04-16T11:04:22.465Z,16.98
2023-04-16T11:07:15.293Z,17.35
2023-04-16T11:10:05.716Z,17.70
2023-04-16T11:12:34.598Z,18.05
2023-04-16T11:15:03.776Z,18.37
2023-04-16T11:17:44.403Z,18.75
2023-04-16T11:20:26.142Z,19.11
2023-04-16T11:22:55.398Z,19.47
2023-04-16T11:25:33.455Z,19.79
2023-04-16T11:28:01.882Z,20.09
2023-04-16T11:30:30.678Z,20.33
2023-04-16T11:32:58.280Z,20.54
2023-04-16T11:35:26.218Z,20.70
2023-04-16T11:37:57.333Z,20.84
2023-04-16T11:40:25.346Z,20.96
2023-04-16T11:42:52.918Z,21.14
2023-04-16T11:45:20.766Z,21.32
2023-04-16T11:47:52.298Z,21.48
2023-04-16T11:50:23.802Z,21.59
2023-04-16T11:52:52.535Z,21.70
2023-04-16T11:55:20.639Z,21.79
2023-04-16T11:57:48.309Z,21.91
2023-04-16T12:00:16.207Z,22.06
2023-04-16T12:02:45.605Z,22.20
2023-04-16T12:05:35.092Z,22.38
2023-04-16T12:08:04.418Z,22.61
2023-04-16T12:10:36.645Z,22.82
2023-04-16T12:13:14.458Z,23.08
2023-04-16T12:15:52.328Z,23.31
2023-04-16T12:18:22.974Z,23.49
2023-04-16T12:20:53.386Z,23.62
2023-04-16T12:23:30.465Z,23.79
2023-04-16T12:26:02.792Z,24.03
2023-04-16T12:28:32.376Z,24.21
2023-04-16T12:31:00.659Z,24.22
2023-04-16T12:33:28.408Z,24.12
2023-04-16T12:35:56.021Z,23.78
2023-04-16T12:38:24.599Z,23.21
2023-04-16T12:40:56.544Z,22.56
2023-04-16T12:43:25.128Z,21.97
2023-04-16T12:45:52.858Z,21.48
2023-04-16T12:48:20.807Z,21.02
2023-04-16T12:50:48.412Z,20.62
2023-04-16T12:53:16.075Z,20.32
2023-04-16T12:55:45.399Z,20.07
2023-04-16T12:58:13.088Z,19.83
2023-04-16T13:00:40.836Z,19.62
2023-04-16T13:03:08.595Z,19.41
2023-04-16T13:05:36.556Z,19.20
2023-04-16T13:08:04.183Z,18.99
2023-04-16T13:10:31.781Z,18.78
2023-04-16T13:12:59.474Z,18.60
2023-04-16T13:15:27.133Z,18.44
2023-04-16T13:17:54.770Z,18.30
2023-04-16T13:20:24.414Z,18.17
2023-04-16T13:22:52.231Z,17.99
2023-04-16T13:25:19.824Z,17.87
2023-04-16T13:27:47.422Z,17.77
2023-04-16T13:30:15.159Z,17.69
2023-04-16T13:32:42.744Z,17.62
2023-04-16T13:35:10.743Z,17.52
2023-04-16T13:37:38.430Z,17.40
2023-04-16T13:40:07.080Z,17.31
2023-04-16T13:42:34.788Z,17.25
2023-04-16T13:45:03.053Z,17.18
2023-04-16T13:47:30.844Z,17.12
2023-04-16T13:49:58.484Z,17.11
2023-04-16T13:52:26.266Z,17.10
2023-04-16T13:54:53.906Z,17.11
2023-04-16T13:57:22.088Z,17.14
2023-04-16T13:59:49.694Z,17.20
2023-04-16T14:02:17.413Z,17.25
2023-04-16T14:04:45.050Z,17.38
2023-04-16T14:07:12.639Z,17.51
2023-04-16T14:09:40.499Z,17.59
2023-04-16T14:12:08.128Z,17.68
2023-04-16T14:14:35.775Z,17.91
2023-04-16T14:17:03.415Z,18.33
2023-04-16T14:19:31.354Z,18.58
2023-04-16T14:21:58.930Z,18.65
2023-04-16T14:24:26.499Z,18.66
2023-04-16T14:26:54.131Z,18.86
2023-04-16T14:29:21.819Z,18.99
2023-04-16T14:31:50.455Z,19.05
2023-04-16T14:34:18.176Z,19.16
2023-04-16T14:36:46.007Z,19.22
2023-04-16T14:39:13.588Z,19.34
2023-04-16T14:41:41.224Z,19.61
2023-04-16T14:44:08.862Z,19.96
2023-04-16T14:46:38.722Z,20.32
2023-04-16T14:49:06.657Z,20.64
2023-04-16T14:51:34.367Z,20.96
2023-04-16T14:54:02.121Z,21.27
2023-04-16T14:56:29.807Z,21.56
2023-04-16T14:58:57.452Z,21.86
2023-04-16T15:01:25.065Z,22.15
2023-04-16T15:03:55.960Z,22.22
2023-04-16T15:06:24.001Z,22.21
2023-04-16T15:08:51.976Z,22.27
2023-04-16T15:11:19.636Z,22.21
2023-04-16T15:13:47.210Z,21.99
2023-04-16T15:16:14.846Z,21.67
2023-04-16T15:18:42.534Z,21.39
2023-04-16T15:21:12.431Z,21.06
2023-04-16T15:23:40.355Z,20.74
2023-04-16T15:26:08.015Z,20.42
2023-04-16T15:28:35.803Z,20.10
2023-04-16T15:31:03.412Z,19.82
2023-04-16T15:33:31.270Z,19.57
2023-04-16T15:35:59.097Z,19.36
2023-04-16T15:38:26.732Z,19.17
2023-04-16T15:40:54.296Z,19.03
2023-04-16T15:43:21.870Z,18.88
2023-04-16T15:45:49.458Z,18.74
2023-04-16T15:48:17.210Z,18.60
2023-04-16T15:50:44.790Z,18.49
2023-04-16T15:53:12.910Z,18.37
2023-04-16T15:55:40.714Z,18.27
2023-04-16T15:58:08.692Z,18.15
2023-04-16T16:00:36.274Z,18.04
2023-04-16T16:03:04.161Z,17.96
2023-04-16T16:05:32.178Z,17.85
2023-04-16T16:08:01.799Z,17.78
2023-04-16T16:10:29.586Z,17.73
2023-04-16T16:12:57.759Z,17.73
2023-04-16T16:15:25.791Z,17.67
2023-04-16T16:17:53.550Z,17.58
2023-04-16T16:20:22.673Z,17.50
2023-04-16T16:22:53.119Z,17.41
2023-04-16T16:25:21.471Z,17.32
2023-04-16T16:27:49.073Z,17.23
2023-04-16T16:30:16.711Z,17.13
2023-04-16T16:32:44.641Z,17.04
2023-04-16T16:35:12.483Z,16.96
2023-04-16T16:37:40.302Z,16.89
2023-04-16T16:40:08.786Z,16.81
2023-04-16T16:42:36.386Z,16.74
2023-04-16T16:45:05.986Z,16.68
2023-04-16T16:47:33.654Z,16.61
2023-04-16T16:50:02.885Z,16.52
2023-04-16T16:52:30.930Z,16.45
2023-04-16T16:54:58.512Z,16.44
2023-04-16T16:57:26.428Z,16.46
2023-04-16T16:59:57.030Z,16.48
2023-04-16T17:02:24.726Z,16.51
2023-04-16T17:04:52.876Z,16.51
2023-04-16T17:07:20.982Z,16.49
2023-04-16T17:09:48.625Z,16.43
2023-04-16T17:12:16.484Z,16.37
2023-04-16T17:14:44.068Z,16.27
2023-04-16T17:17:11.724Z,16.14
2023-04-16T17:19:39.325Z,16.01
2023-04-16T17:22:06.918Z,15.90
2023-04-16T17:24:34.504Z,15.78
2023-04-16T17:27:04.175Z,15.66
2023-04-16T17:29:31.821Z,15.54
2023-04-16T17:31:59.427Z,15.42
2023-04-16T17:34:27.976Z,15.30
2023-04-16T17:36:55.767Z,15.15
2023-04-16T17:39:23.354Z,15.01
2023-04-16T17:41:54.376Z,14.86
2023-04-16T17:44:23.236Z,14.71
2023-04-16T17:46:51.255Z,14.56
2023-04-16T17:49:18.830Z,14.44
2023-04-16T17:51:46.551Z,14.31
2023-04-16T17:54:14.142Z,14.16
2023-04-16T17:56:41.726Z,14.03
2023-04-16T17:59:09.342Z,13.90
2023-04-16T18:01:36.986Z,13.77
2023-04-16T18:04:04.992Z,13.64
2023-04-16T18:06:32.900Z,13.51
2023-04-16T18:09:00.699Z,13.39
2023-04-16T18:11:31.045Z,13.28
2023-04-16T18:13:58.894Z,13.14
2023-04-16T18:16:26.678Z,13.02
2023-04-16T18:18:54.459Z,12.91
2023-04-16T18:21:22.173Z,12.80
2023-04-16T18:23:49.751Z,12.70
2023-04-16T18:26:20.568Z,12.59
2023-04-16T18:28:48.640Z,12.49
2023-04-16T18:31:18.990Z,12.40
2023-04-16T18:33:56.403Z,12.31
2023-04-16T18:36:26.833Z,12.23
2023-04-16T18:41:27.036Z,12.05
2023-04-16T18:43:54.679Z,11.97
2023-04-16T18:46:22.520Z,11.90
2023-04-16T18:48:50.341Z,11.81
2023-04-16T18:51:17.988Z,11.74
2023-04-16T18:53:45.863Z,11.66
2023-04-16T18:56:13.850Z,11.58
2023-04-16T18:58:41.667Z,11.50
2023-04-16T19:01:12.910Z,11.44
2023-04-16T19:03:40.946Z,11.37
2023-04-16T19:06:08.593Z,11.30
2023-04-16T19:08:36.454Z,11.22
2023-04-16T19:11:04.153Z,11.15
2023-04-16T19:13:32.380Z,11.07
2023-04-16T19:16:01.052Z,10.99
2023-04-16T19:18:28.964Z,10.92
2023-04-16T19:21:00.691Z,10.85
2023-04-16T19:23:28.732Z,10.78
2023-04-16T19:25:57.126Z,10.74
2023-04-16T19:28:25.236Z,10.73
2023-04-16T19:30:53.482Z,10.75
2023-04-16T19:33:21.085Z,10.76
2023-04-16T19:35:48.967Z,10.75
2023-04-16T19:38:16.612Z,10.70
2023-04-16T19:40:46.607Z,10.63
2023-04-16T19:43:14.732Z,10.54
2023-04-16T19:45:53.392Z,10.43
2023-04-16T19:48:21.468Z,10.33
2023-04-16T19:50:49.338Z,10.21
2023-04-16T19:53:17.400Z,10.11
2023-04-16T19:55:45.021Z,10.02
2023-04-16T19:58:14.482Z,9.93
2023-04-16T20:00:42.361Z,9.85
2023-04-16T20:03:10.112Z,9.76
2023-04-16T20:05:37.789Z,9.68
2023-04-16T20:08:06.258Z,9.58
2023-04-16T20:10:33.920Z,9.50
2023-04-16T20:13:01.516Z,9.42
2023-04-16T20:15:29.106Z,9.40
2023-04-16T20:17:56.846Z,9.40
2023-04-16T20:20:24.533Z,9.40
2023-04-16T20:22:52.197Z,9.39
2023-04-16T20:25:19.841Z,9.37
2023-04-16T20:27:47.598Z,9.34
2023-04-16T20:30:15.554Z,9.29
2023-04-16T20:32:43.152Z,9.23
2023-04-16T20:35:11.696Z,9.16
2023-04-16T20:37:42.082Z,9.11
2023-04-16T20:40:10.958Z,9.07
2023-04-16T20:42:38.757Z,9.02
2023-04-16T20:45:07.499Z,8.98
2023-04-16T20:47:35.281Z,8.91
2023-04-16T20:50:03.799Z,8.84
2023-04-16T20:52:31.414Z,8.79
2023-04-16T20:54:59.011Z,8.76
2023-04-16T20:57:28.186Z,8.73
2023-04-16T20:59:56.455Z,8.69
2023-04-16T21:02:24.450Z,8.64
2023-04-16T21:04:52.535Z,8.59
2023-04-16T21:07:20.491Z,8.53
2023-04-16T21:09:48.063Z,8.47
2023-04-16T21:12:15.639Z,8.41
2023-04-16T21:14:43.238Z,8.33
2023-04-16T21:17:10.793Z,8.25
2023-04-16T21:19:38.460Z,8.20
2023-04-16T21:22:06.020Z,8.14
2023-04-16T21:24:33.625Z,8.10
2023-04-16T21:27:01.879Z,8.08
2023-04-16T21:29:30.010Z,8.10
2023-04-16T21:31:57.679Z,8.13
2023-04-16T21:34:25.473Z,8.13
2023-04-16T21:36:53.031Z,8.13
2023-04-16T21:39:21.844Z,8.10
2023-04-16T21:41:49.468Z,8.05
2023-04-16T21:44:17.155Z,8.00
2023-04-16T21:46:44.790Z,7.92
2023-04-16T21:49:12.665Z,7.85
2023-04-16T21:51:43.004Z,7.79
2023-04-16T21:54:10.648Z,7.72
2023-04-16T21:56:38.232Z,7.66
2023-04-16T21:59:05.858Z,7.58
2023-04-16T22:01:33.511Z,7.55
2023-04-16T22:04:02.071Z,7.55
2023-04-16T22:06:29.783Z,7.55
2023-04-16T22:08:58.979Z,7.54
2023-04-16T22:11:26.546Z,7.49
2023-04-16T22:13:57.795Z,7.43
2023-04-16T22:16:25.873Z,7.34
2023-04-16T22:18:54.985Z,7.25
2023-04-16T22:21:22.644Z,7.16
2023-04-16T22:23:50.381Z,7.08
2023-04-16T22:26:17.991Z,7.02
2023-04-16T22:28:45.575Z,6.95
2023-04-16T22:31:13.330Z,6.88
2023-04-16T22:33:40.967Z,6.81
2023-04-16T22:36:08.915Z,6.78
2023-04-16T22:38:38.723Z,6.78
2023-04-16T22:41:06.397Z,6.78
2023-04-16T22:43:37.036Z,6.80
2023-04-16T22:46:06.577Z,6.79
2023-04-16T22:48:36.349Z,6.78
2023-04-16T22:51:12.982Z,6.76
2023-04-16T22:53:40.583Z,6.70
2023-04-16T22:56:08.199Z,6.64
2023-04-16T22:58:36.106Z,6.59
2023-04-16T23:01:03.745Z,6.53
2023-04-16T23:03:31.990Z,6.47
2023-04-16T23:05:59.671Z,6.40
2023-04-16T23:08:27.270Z,6.36
2023-04-16T23:10:54.896Z,6.34
2023-04-16T23:13:22.536Z,6.35
2023-04-16T23:15:50.346Z,6.36
2023-04-16T23:18:18.012Z,6.37
2023-04-16T23:20:45.634Z,6.36
2023-04-16T23:23:13.282Z,6.33
2023-04-16T23:25:41.381Z,6.27
2023-04-16T23:28:08.967Z,6.21
2023-04-16T23:30:36.592Z,6.14
2023-04-16T23:33:04.707Z,6.08
2023-04-16T23:35:32.478Z,6.03
2023-04-16T23:38:00.409Z,5.99
2023-04-16T23:40:28.047Z,5.98
2023-04-16T23:42:55.712Z,5.99
2023-04-16T23:45:23.319Z,6.02
2023-04-16T23:47:51.060Z,6.04
2023-04-16T23:50:18.829Z,6.06
2023-04-16T23:52:46.447Z,6.07
2023-04-16T23:55:14.086Z,6.06
2023-04-16T23:57:41.680Z,6.02
